Time,TemperatureF,DewpointF,PressureIn,WindDirection,WindDirectionDegrees,WindSpeedMPH,WindSpeedGustMPH,Humidity,HourlyPrecipIn,Conditions,Clouds,dailyrainin,SoftwareType,DateUTC
2013-02-14 00:00:00,33.7,32.4,29.86,North,3,0.0,0.0,95,0.00,OVC,,0.00,WeatherDisplay:10.37,2013-02-14 05:00:00,
2013-02-14 01:00:00,33.5,32.2,29.87,North,1,0.0,0.0,95,0.00,OVC,,0.00,WeatherDisplay:10.37,2013-02-14 06:00:00,
2013-02-14 02:00:00,32.7,31.5,29.87,North,2,0.0,0.0,95,0.00,SCT,,0.00,WeatherDisplay:10.37,2013-02-14 07:00:00,
2013-02-14 03:00:00,31.7,30.5,29.88,North,1,0.0,0.0,95,0.00,BKN,,0.00,WeatherDisplay:10.37,2013-02-14 08:00:00,
2013-02-14 04:00:00,30.8,29.6,29.89,North,3,0.0,0.0,95,0.00,OVC,,0.00,WeatherDisplay:10.37,2013-02-14 09:00:00,
2013-02-14 05:00:00,31.3,30.1,29.89,North,3,0.0,0.0,95,0.00,OVC,,0.00,WeatherDisplay:10.37,2013-02-14 10:00:00,
2013-02-14 06:00:00,31.8,30.5,29.89,North,3,0.0,0.0,95,0.00,OVC,,0.00,WeatherDisplay:10.37,2013-02-14 11:00:00,
2013-02-14 07:00:00,31.9,30.6,29.92,North,3,0.0,0.0,95,0.00,OVC,,0.00,WeatherDisplay:10.37,2013-02-14 12:00:00,
2013-02-14 08:00:00,32.1,30.8,29.93,North,3,0.0,0.0,95,0.00,OVC,,0.00,WeatherDisplay:10.37,2013-02-14 13:00:00,
2013-02-14 09:00:00,32.6,31.3,29.96,North,3,0.0,0.0,95,0.00,OVC,,0.00,WeatherDisplay:10.37,2013-02-14 14:00:00,
2013-02-14 10:00:00,34.9,33.6,29.97,North,2,0.0,0.0,95,0.00,CLR,,0.00,WeatherDisplay:10.37,2013-02-14 15:00:00,
2013-02-14 11:00:00,37.1,35.8,29.94,North,3,0.0,0.0,95,0.00,CLR,,0.00,WeatherDisplay:10.37,2013-02-14 16:00:00,
2013-02-14 12:00:00,39.9,38.6,29.95,North,1,0.0,0.0,95,0.00,CLR,,0.00,WeatherDisplay:10.37,2013-02-14 17:00:00,
2013-02-14 13:00:00,42.6,41.2,29.93,North,3,0.0,0.0,95,0.00,CLR,,0.00,WeatherDisplay:10.37,2013-02-14 18:00:00,
2013-02-14 14:00:00,44.4,43.1,29.89,North,2,0.0,0.0,95,0.00,CLR,,0.00,WeatherDisplay:10.37,2013-02-14 19:00:00,
2013-02-14 15:00:00,47.6,46.3,29.90,North,1,0.0,0.0,95,0.00,CLR,,0.00,WeatherDisplay:10.37,2013-02-14 20:00:00,
2013-02-14 16:00:00,50.2,48.8,29.91,North,3,0.0,0.0,95,0.00,CLR,,0.00,WeatherDisplay:10.37,2013-02-14 21:00:00,
2013-02-14 17:00:00,51.3,49.9,29.91,North,3,0.0,0.0,95,0.00,CLR,,0.00,WeatherDisplay:10.37,2013-02-14 22:00:00,
2013-02-14 18:00:00,51.4,50.0,29.91,North,3,0.0,0.0,95,0.00,CLR,,0.00,WeatherDisplay:10.37,2013-02-14 23:00:00,
2013-02-14 19:00:00,48.5,47.1,29.93,North,2,0.0,0.0,95,0.00,CLR,,0.00,WeatherDisplay:10.37,2013-02-15 00:00:00,
2013-02-14 20:00:00,43.4,42.1,29.94,North,2,0.0,0.0,95,0.00,CLR,,0.00,WeatherDisplay:10.37,2013-02-15 01:00:00,
2013-02-14 21:00:00,39.3,38.0,29.94,North,1,0.0,0.0,95,0.00,CLR,,0.00,WeatherDisplay:10.37,2013-02-15 02:00:00,
2013-02-14 22:00:00,35.6,34.4,29.96,North,3,0.0,0.0,95,0.00,CLR,,0.00,WeatherDisplay:10.37,2013-02-15 03:00:00,
2013-02-14 23:00:00,33.6,32.3,29.97,North,2,0.0,0.0,95,0.00,CLR,,0.00,WeatherDisplay:10.37,2013-02-15 04:00:00,